Time;durP1;ratioP1;P1;durP2;ratioP2;P2;SDS_P1;SDS_P2;PMS_P1;PMS_P2;Temp;Humidity;BMP_temperature;BMP_pressure;BME280_temperature;BME280_humidity;BME280_pressure;Samples;Min_cycle;Max_cycle;Signal;HPM_P1;HPM_P2
2022/06/28 00:00:23;;;;;;;2.67;1.60;;;;;;;;;;5065287;28;20086;-66
2022/06/28 00:03:08;;;;;;;3.95;1.90;;;;;;;;;;5069350;28;20106;-64
2022/06/28 00:05:54;;;;;;;2.60;1.67;;;;;;;;;;5052499;28;20141;-62
2022/06/28 00:08:39;;;;;;;3.17;1.58;;;;;;;;;;5059080;28;20021;-63
2022/06/28 00:11:25;;;;;;;2.10;1.50;;;;;;;;;;5066635;28;20056;-62
2022/06/28 00:17:15;;;;;;;2.80;1.70;;;;;;;;;;5066741;28;20032;-62
2022/06/28 00:20:00;;;;;;;3.80;1.80;;;;;;;;;;5064878;28;20571;-68
2022/06/28 00:22:46;;;;;;;3.45;1.45;;;;;;;;;;5069690;28;20455;-68
2022/06/28 00:25:32;;;;;;;2.50;1.58;;;;;;;;;;5067878;28;20043;-67
2022/06/28 00:28:18;;;;;;;3.38;2.35;;;;;;;;;;5069296;28;20029;-69
2022/06/28 00:31:03;;;;;;;4.53;1.80;;;;;;;;;;5069469;28;20032;-67
2022/06/28 00:33:49;;;;;;;2.45;1.60;;;;;;;;;;5054991;28;20039;-68
2022/06/28 00:36:35;;;;;;;2.78;1.73;;;;;;;;;;5068215;28;20049;-68
2022/06/28 00:39:20;;;;;;;3.65;1.35;;;;;;;;;;5062052;28;20036;-81
2022/06/28 00:42:10;;;;;;;2.90;1.50;;;;;;;;;;5052477;28;20028;-68
2022/06/28 00:44:58;;;;;;;4.95;1.90;;;;;;;;;;5067871;28;20107;-69
2022/06/28 00:47:43;;;;;;;2.90;1.70;;;;;;;;;;5062604;28;20028;-70
2022/06/28 00:50:31;;;;;;;2.30;1.45;;;;;;;;;;5069456;28;20040;-69
2022/06/28 00:53:17;;;;;;;3.35;1.60;;;;;;;;;;5068731;28;20093;-68
2022/06/28 00:56:03;;;;;;;1.58;1.13;;;;;;;;;;5068224;28;20036;-66
2022/06/28 00:58:50;;;;;;;2.10;1.70;;;;;;;;;;5066874;28;20029;-68
2022/06/28 01:01:36;;;;;;;3.05;1.13;;;;;;;;;;5067707;28;20036;-66
2022/06/28 01:04:21;;;;;;;4.10;1.30;;;;;;;;;;5065324;28;20024;-64
2022/06/28 01:07:07;;;;;;;2.92;1.45;;;;;;;;;;5072263;28;20032;-65
2022/06/28 01:09:53;;;;;;;3.90;1.40;;;;;;;;;;5070052;28;20036;-67
2022/06/28 01:12:38;;;;;;;4.68;1.70;;;;;;;;;;5065513;28;20056;-66
2022/06/28 01:15:24;;;;;;;2.00;1.40;;;;;;;;;;5068569;28;20032;-67
2022/06/28 01:18:10;;;;;;;2.83;1.23;;;;;;;;;;5068075;28;20105;-68
2022/06/28 01:20:56;;;;;;;1.58;1.42;;;;;;;;;;5062315;28;20021;-67
2022/06/28 01:23:42;;;;;;;3.80;1.50;;;;;;;;;;5066904;28;20028;-67
2022/06/28 01:26:30;;;;;;;4.97;1.50;;;;;;;;;;5067740;28;20036;-68
2022/06/28 01:29:16;;;;;;;3.10;1.40;;;;;;;;;;5067153;28;20074;-68
2022/06/28 01:32:01;;;;;;;2.90;1.77;;;;;;;;;;5060694;28;20040;-67
2022/06/28 01:34:47;;;;;;;1.52;1.42;;;;;;;;;;5055819;28;20028;-80
2022/06/28 01:37:33;;;;;;;6.57;1.70;;;;;;;;;;5053827;28;20040;-82
2022/06/28 01:40:18;;;;;;;4.65;1.60;;;;;;;;;;5065646;28;20482;-83
2022/06/28 01:43:04;;;;;;;2.70;1.42;;;;;;;;;;5069666;28;20532;-80
2022/06/28 01:45:51;;;;;;;3.75;1.40;;;;;;;;;;5057847;28;20032;-83
2022/06/28 01:48:36;;;;;;;4.53;1.52;;;;;;;;;;5071343;28;20437;-86
2022/06/28 01:51:22;;;;;;;3.83;1.52;;;;;;;;;;5070759;28;20024;-82
2022/06/28 01:54:08;;;;;;;2.13;1.23;;;;;;;;;;5063950;28;20475;-69
2022/06/28 01:56:54;;;;;;;3.80;1.60;;;;;;;;;;5070715;28;20159;-70
2022/06/28 01:59:39;;;;;;;3.15;1.60;;;;;;;;;;5071493;28;20090;-71
2022/06/28 02:02:25;;;;;;;3.63;1.20;;;;;;;;;;5067321;28;20047;-69
2022/06/28 02:05:11;;;;;;;4.85;1.77;;;;;;;;;;5073126;28;20107;-70
2022/06/28 02:07:56;;;;;;;1.70;1.60;;;;;;;;;;5070116;28;20100;-70
2022/06/28 02:10:42;;;;;;;4.28;1.50;;;;;;;;;;5072053;28;20086;-68
2022/06/28 02:13:28;;;;;;;2.47;1.25;;;;;;;;;;5071808;28;20070;-65
2022/06/28 02:16:14;;;;;;;1.48;1.38;;;;;;;;;;5072210;28;20081;-66
2022/06/28 02:18:59;;;;;;;5.22;1.63;;;;;;;;;;5056177;28;20032;-64
2022/06/28 02:21:45;;;;;;;5.78;1.50;;;;;;;;;;5072096;28;20412;-65
2022/06/28 02:24:31;;;;;;;4.25;1.20;;;;;;;;;;5055273;28;20426;-65
2022/06/28 02:27:17;;;;;;;5.95;1.50;;;;;;;;;;5070529;28;20035;-65
2022/06/28 02:30:03;;;;;;;3.53;1.70;;;;;;;;;;5069154;28;20082;-62
2022/06/28 02:32:48;;;;;;;2.03;1.40;;;;;;;;;;5069852;28;20438;-66
2022/06/28 02:41:42;;;;;;;5.00;1.40;;;;;;;;;;5067365;28;20021;-66
2022/06/28 02:44:27;;;;;;;1.40;1.30;;;;;;;;;;5055721;28;20442;-67
2022/06/28 02:47:13;;;;;;;3.70;1.60;;;;;;;;;;5066979;28;20024;-67
2022/06/28 02:49:58;;;;;;;2.00;1.10;;;;;;;;;;5069147;28;20474;-82
2022/06/28 02:52:44;;;;;;;1.13;1.10;;;;;;;;;;5073890;28;20032;-80
2022/06/28 02:55:30;;;;;;;2.10;1.60;;;;;;;;;;5072383;28;20040;-80
2022/06/28 02:58:15;;;;;;;2.58;1.40;;;;;;;;;;5070603;28;20025;-84
2022/06/28 03:01:01;;;;;;;2.47;1.20;;;;;;;;;;5055230;28;20029;-79
2022/06/28 03:03:47;;;;;;;4.78;1.27;;;;;;;;;;5069906;28;20032;-81
2022/06/28 03:06:32;;;;;;;3.20;1.60;;;;;;;;;;5048108;28;20040;-79
2022/06/28 03:09:18;;;;;;;2.65;1.35;;;;;;;;;;5069999;28;20111;-64
2022/06/28 03:12:05;;;;;;;2.50;1.58;;;;;;;;;;5048950;28;20157;-64
2022/06/28 03:14:51;;;;;;;4.13;1.50;;;;;;;;;;5068292;28;20028;-64
2022/06/28 03:17:37;;;;;;;1.63;1.35;;;;;;;;;;5061736;28;20028;-63
2022/06/28 03:20:23;;;;;;;3.25;1.50;;;;;;;;;;5069405;28;20029;-65
2022/06/28 03:23:08;;;;;;;1.80;1.48;;;;;;;;;;5069594;28;20032;-64
2022/06/28 03:25:54;;;;;;;2.70;1.50;;;;;;;;;;5063511;28;20044;-71
2022/06/28 03:28:39;;;;;;;4.22;1.73;;;;;;;;;;5055513;28;20029;-66
2022/06/28 03:31:25;;;;;;;3.40;1.60;;;;;;;;;;5053914;28;20086;-65
2022/06/28 03:34:10;;;;;;;1.70;1.60;;;;;;;;;;5056076;28;20029;-65
2022/06/28 03:36:56;;;;;;;2.05;1.50;;;;;;;;;;5069185;28;20090;-66
2022/06/28 03:39:42;;;;;;;3.47;1.75;;;;;;;;;;5052195;28;20375;-67
2022/06/28 03:42:27;;;;;;;3.17;1.52;;;;;;;;;;5067865;28;20047;-68
2022/06/28 03:45:13;;;;;;;2.75;1.42;;;;;;;;;;5066087;28;20484;-68
2022/06/28 03:47:59;;;;;;;3.58;1.55;;;;;;;;;;5063767;28;20036;-69
2022/06/28 03:50:44;;;;;;;3.78;1.90;;;;;;;;;;5069133;28;20111;-68
2022/06/28 03:53:30;;;;;;;2.92;1.80;;;;;;;;;;5065304;28;20452;-67
2022/06/28 03:56:15;;;;;;;4.72;1.83;;;;;;;;;;5068546;28;20467;-69
2022/06/28 03:59:01;;;;;;;1.92;1.80;;;;;;;;;;5067058;28;20506;-68
2022/06/28 04:01:46;;;;;;;2.20;1.60;;;;;;;;;;5064864;28;20021;-62
2022/06/28 04:04:32;;;;;;;3.55;1.80;;;;;;;;;;5065552;28;20029;-68
2022/06/28 04:07:18;;;;;;;3.45;1.60;;;;;;;;;;5071584;28;20515;-69
2022/06/28 04:10:03;;;;;;;5.53;1.65;;;;;;;;;;5070286;28;20040;-69
2022/06/28 04:12:49;;;;;;;3.60;2.08;;;;;;;;;;5065411;28;20028;-70
2022/06/28 04:15:35;;;;;;;3.60;2.00;;;;;;;;;;5053656;28;20016;-71
2022/06/28 04:18:20;;;;;;;2.72;1.63;;;;;;;;;;5067982;28;20020;-68
2022/06/28 04:21:07;;;;;;;3.10;1.70;;;;;;;;;;5072552;28;20050;-66
2022/06/28 04:23:53;;;;;;;3.13;1.38;;;;;;;;;;5072005;28;20036;-64
2022/06/28 04:26:38;;;;;;;2.38;1.83;;;;;;;;;;5069143;28;20117;-62
2022/06/28 04:29:24;;;;;;;4.78;2.00;;;;;;;;;;5055621;28;20032;-63
2022/06/28 04:32:09;;;;;;;3.30;1.75;;;;;;;;;;5067989;28;20024;-63
2022/06/28 04:34:55;;;;;;;3.55;1.88;;;;;;;;;;5059015;28;20033;-62
2022/06/28 04:37:41;;;;;;;2.03;1.52;;;;;;;;;;5066294;28;20077;-64
2022/06/28 04:40:27;;;;;;;3.78;1.75;;;;;;;;;;5066497;28;20040;-68
2022/06/28 04:43:12;;;;;;;2.90;1.90;;;;;;;;;;5069159;28;20392;-69
2022/06/28 04:45:59;;;;;;;3.42;1.75;;;;;;;;;;5067867;28;20035;-68
2022/06/28 04:48:44;;;;;;;5.25;1.65;;;;;;;;;;5059472;28;20035;-68
2022/06/28 04:51:30;;;;;;;4.95;2.00;;;;;;;;;;5068705;28;20031;-68
2022/06/28 04:54:15;;;;;;;1.70;1.60;;;;;;;;;;5067246;28;20024;-67
2022/06/28 04:57:01;;;;;;;1.95;1.58;;;;;;;;;;5062686;28;20025;-68
2022/06/28 04:59:47;;;;;;;3.97;1.90;;;;;;;;;;5067607;28;20108;-67
2022/06/28 05:02:34;;;;;;;4.07;1.88;;;;;;;;;;5068343;28;20025;-68
2022/06/28 05:05:20;;;;;;;5.18;2.20;;;;;;;;;;5066639;28;20040;-65
2022/06/28 05:08:05;;;;;;;3.25;1.77;;;;;;;;;;5069828;28;20025;-68
2022/06/28 05:10:51;;;;;;;2.92;1.73;;;;;;;;;;5071788;28;20024;-69
2022/06/28 05:13:36;;;;;;;3.58;2.13;;;;;;;;;;5053982;28;20031;-68
2022/06/28 05:16:22;;;;;;;2.78;2.50;;;;;;;;;;5054774;28;20464;-68
2022/06/28 05:19:08;;;;;;;6.40;4.25;;;;;;;;;;5069188;28;20036;-68
2022/06/28 05:21:54;;;;;;;6.95;4.00;;;;;;;;;;5082677;28;20028;-66
2022/06/28 05:24:39;;;;;;;6.75;4.90;;;;;;;;;;5071896;28;20452;-65
2022/06/28 05:27:25;;;;;;;6.32;5.35;;;;;;;;;;5071575;28;20031;-68
2022/06/28 05:30:11;;;;;;;8.00;5.43;;;;;;;;;;5071540;28;20043;-67
2022/06/28 05:32:56;;;;;;;9.63;5.32;;;;;;;;;;5074128;28;20025;-77
2022/06/28 05:35:42;;;;;;;11.32;5.90;;;;;;;;;;5072409;28;20040;-76
2022/06/28 05:38:28;;;;;;;10.77;6.93;;;;;;;;;;5074040;28;20031;-76
2022/06/28 05:41:13;;;;;;;9.18;5.28;;;;;;;;;;5073106;28;20439;-75
2022/06/28 05:43:59;;;;;;;10.65;6.20;;;;;;;;;;5073726;28;20028;-75
2022/06/28 05:46:45;;;;;;;10.35;6.10;;;;;;;;;;5071901;28;20060;-75
2022/06/28 05:49:30;;;;;;;7.97;5.97;;;;;;;;;;5073205;28;20115;-76
2022/06/28 05:52:16;;;;;;;10.98;6.50;;;;;;;;;;5073485;28;20028;-69
2022/06/28 05:55:02;;;;;;;10.73;6.57;;;;;;;;;;5071902;28;20024;-67
2022/06/28 05:57:47;;;;;;;8.07;6.50;;;;;;;;;;5065252;28;20211;-72
2022/06/28 06:00:34;;;;;;;8.48;5.70;;;;;;;;;;5047614;28;20032;-73
2022/06/28 06:03:19;;;;;;;8.35;6.00;;;;;;;;;;5069927;28;20028;-75
2022/06/28 06:06:05;;;;;;;8.88;6.45;;;;;;;;;;5073520;28;20044;-74
2022/06/28 06:08:51;;;;;;;10.25;6.32;;;;;;;;;;5063697;28;20024;-75
2022/06/28 06:11:37;;;;;;;7.53;5.28;;;;;;;;;;5071623;28;21668;-73
2022/06/28 06:14:23;;;;;;;7.97;6.25;;;;;;;;;;5059473;28;20040;-75
2022/06/28 06:17:08;;;;;;;10.55;5.65;;;;;;;;;;5073383;28;20039;-73
2022/06/28 06:19:54;;;;;;;6.95;5.63;;;;;;;;;;5073508;28;20025;-72
2022/06/28 06:22:39;;;;;;;9.65;6.05;;;;;;;;;;5060169;28;20526;-72
2022/06/28 06:25:25;;;;;;;7.57;5.25;;;;;;;;;;5057839;28;20095;-73
2022/06/28 06:28:11;;;;;;;8.73;5.55;;;;;;;;;;5073819;28;20063;-76
2022/06/28 06:30:56;;;;;;;8.48;6.05;;;;;;;;;;5058137;28;20025;-74
2022/06/28 06:33:42;;;;;;;7.90;5.78;;;;;;;;;;5058900;28;20111;-75
2022/06/28 06:36:28;;;;;;;10.45;5.50;;;;;;;;;;5060096;28;20062;-75
2022/06/28 06:39:14;;;;;;;10.57;5.20;;;;;;;;;;5056892;28;20028;-74
2022/06/28 06:41:59;;;;;;;7.25;4.95;;;;;;;;;;5072664;28;20025;-75
2022/06/28 06:44:45;;;;;;;9.15;5.15;;;;;;;;;;5061428;28;20024;-75
2022/06/28 06:47:31;;;;;;;8.23;5.10;;;;;;;;;;5073022;28;20112;-74
2022/06/28 06:50:16;;;;;;;7.68;5.03;;;;;;;;;;5058705;28;20040;-72
2022/06/28 06:53:03;;;;;;;7.40;5.38;;;;;;;;;;5073188;28;20055;-71
2022/06/28 06:55:48;;;;;;;8.02;4.95;;;;;;;;;;5072095;28;20115;-72
2022/06/28 06:58:34;;;;;;;8.02;4.90;;;;;;;;;;5068691;28;20020;-71
2022/06/28 07:01:20;;;;;;;7.65;4.80;;;;;;;;;;5072525;28;20504;-71
2022/06/28 07:04:06;;;;;;;9.30;5.05;;;;;;;;;;5057609;28;20067;-71
2022/06/28 07:06:51;;;;;;;7.90;5.07;;;;;;;;;;5072825;28;20035;-70
2022/06/28 07:09:37;;;;;;;8.60;5.00;;;;;;;;;;5071277;28;20070;-71
2022/06/28 07:12:22;;;;;;;11.30;5.78;;;;;;;;;;5073024;28;20123;-70
2022/06/28 07:15:08;;;;;;;8.35;5.20;;;;;;;;;;5070542;28;20111;-69
2022/06/28 07:17:54;;;;;;;8.88;5.20;;;;;;;;;;5056444;28;20025;-71
2022/06/28 07:20:39;;;;;;;6.30;4.90;;;;;;;;;;5070263;28;20375;-69
2022/06/28 07:23:25;;;;;;;7.95;6.38;;;;;;;;;;5069995;28;20365;-71
2022/06/28 07:26:11;;;;;;;10.98;6.32;;;;;;;;;;5059560;28;20039;-75
2022/06/28 07:28:56;;;;;;;10.50;5.70;;;;;;;;;;5072041;28;20074;-75
2022/06/28 07:31:44;;;;;;;11.60;6.25;;;;;;;;;;5056661;28;20036;-74
2022/06/28 07:34:31;;;;;;;8.65;6.18;;;;;;;;;;5072181;28;20039;-75
2022/06/28 07:37:16;;;;;;;8.82;5.95;;;;;;;;;;5072825;28;20104;-75
2022/06/28 07:40:03;;;;;;;8.02;6.22;;;;;;;;;;5057194;28;20067;-74
2022/06/28 07:42:49;;;;;;;8.52;6.10;;;;;;;;;;5071825;28;20104;-70
2022/06/28 07:45:36;;;;;;;9.35;6.30;;;;;;;;;;5071661;28;20040;-71
2022/06/28 07:48:22;;;;;;;6.55;5.00;;;;;;;;;;5071206;28;20032;-72
2022/06/28 07:54:11;;;;;;;7.63;6.00;;;;;;;;;;5070696;28;20356;-71
2022/06/28 07:56:57;;;;;;;8.52;6.53;;;;;;;;;;5060881;28;20116;-71
2022/06/28 07:59:42;;;;;;;8.57;5.82;;;;;;;;;;5057643;28;20032;-74
2022/06/28 08:02:28;;;;;;;10.25;5.55;;;;;;;;;;5070803;28;20034;-72
2022/06/28 08:05:14;;;;;;;8.52;5.65;;;;;;;;;;5057088;28;20048;-70
2022/06/28 08:08:00;;;;;;;7.50;5.55;;;;;;;;;;5055412;28;20145;-71
2022/06/28 08:10:46;;;;;;;5.85;4.85;;;;;;;;;;5070768;28;20060;-72
2022/06/28 08:13:31;;;;;;;8.00;5.03;;;;;;;;;;5069975;28;20028;-75
2022/06/28 08:16:17;;;;;;;7.57;5.43;;;;;;;;;;5050575;28;20107;-72
2022/06/28 08:19:02;;;;;;;6.82;5.75;;;;;;;;;;5069669;28;20036;-71
2022/06/28 08:21:49;;;;;;;8.00;4.90;;;;;;;;;;5054821;28;20029;-72
2022/06/28 08:24:34;;;;;;;6.05;4.95;;;;;;;;;;5071272;28;20056;-73
2022/06/28 08:27:20;;;;;;;6.13;4.43;;;;;;;;;;5070999;28;20658;-73
2022/06/28 08:30:06;;;;;;;7.25;5.10;;;;;;;;;;5071558;28;20025;-72
2022/06/28 08:32:52;;;;;;;4.57;4.03;;;;;;;;;;5058508;28;20046;-73
2022/06/28 08:35:38;;;;;;;8.70;5.43;;;;;;;;;;5070735;28;20039;-72
2022/06/28 08:38:24;;;;;;;6.03;4.05;;;;;;;;;;5069718;28;20108;-73
2022/06/28 08:41:09;;;;;;;6.30;4.57;;;;;;;;;;5055962;28;20056;-74
2022/06/28 08:43:55;;;;;;;5.68;4.20;;;;;;;;;;5070307;28;20059;-73
2022/06/28 08:46:41;;;;;;;6.90;4.45;;;;;;;;;;5059381;28;20074;-74
2022/06/28 08:49:32;;;;;;;7.53;4.25;;;;;;;;;;5072223;28;20394;-75
2022/06/28 08:52:20;;;;;;;4.97;3.63;;;;;;;;;;5069656;28;20181;-73
2022/06/28 08:55:06;;;;;;;5.70;4.23;;;;;;;;;;5063019;28;20035;-74
2022/06/28 08:57:53;;;;;;;3.67;3.28;;;;;;;;;;5075958;28;20127;-70
2022/06/28 09:00:38;;;;;;;4.50;3.53;;;;;;;;;;5075810;28;20086;-72
2022/06/28 09:03:24;;;;;;;6.15;4.18;;;;;;;;;;5074436;28;20059;-71
2022/06/28 09:06:10;;;;;;;4.38;3.60;;;;;;;;;;5060011;28;20040;-70
2022/06/28 09:08:55;;;;;;;7.07;4.00;;;;;;;;;;5064670;28;20025;-73
2022/06/28 09:11:42;;;;;;;3.75;3.20;;;;;;;;;;5074084;28;20126;-73
2022/06/28 09:14:29;;;;;;;6.43;3.05;;;;;;;;;;5074767;28;20028;-72
2022/06/28 09:17:21;;;;;;;4.63;3.03;;;;;;;;;;5060163;28;20029;-73
2022/06/28 09:20:08;;;;;;;4.28;2.72;;;;;;;;;;5058116;28;20059;-74
2022/06/28 09:22:53;;;;;;;3.60;2.70;;;;;;;;;;5056989;28;20115;-73
2022/06/28 09:25:39;;;;;;;3.25;2.60;;;;;;;;;;5074384;28;20047;-72
2022/06/28 09:28:28;;;;;;;5.60;2.47;;;;;;;;;;5073668;28;20029;-71
2022/06/28 09:31:16;;;;;;;4.20;2.33;;;;;;;;;;5058372;28;20039;-72
2022/06/28 09:34:06;;;;;;;5.18;2.10;;;;;;;;;;5073600;28;20041;-72
2022/06/28 09:36:56;;;;;;;4.50;2.30;;;;;;;;;;5059012;28;20489;-74
2022/06/28 09:39:46;;;;;;;3.92;2.15;;;;;;;;;;5060373;28;20024;-75
2022/06/28 09:42:32;;;;;;;6.53;3.03;;;;;;;;;;5056352;28;20395;-75
2022/06/28 09:45:17;;;;;;;5.22;2.40;;;;;;;;;;5072769;28;20036;-74
2022/06/28 09:48:03;;;;;;;4.25;2.13;;;;;;;;;;5028375;28;20058;-73
2022/06/28 09:50:56;;;;;;;3.53;1.95;;;;;;;;;;5028920;28;20037;-76
2022/06/28 09:53:43;;;;;;;3.03;2.15;;;;;;;;;;5020124;28;20045;-74
2022/06/28 09:56:31;;;;;;;6.03;2.30;;;;;;;;;;5031118;28;20484;-74
2022/06/28 09:59:17;;;;;;;2.78;2.28;;;;;;;;;;5032480;28;20029;-75
2022/06/28 10:02:02;;;;;;;4.22;1.70;;;;;;;;;;5020862;28;20443;-75
2022/06/28 10:04:48;;;;;;;3.65;2.08;;;;;;;;;;5024856;28;20414;-74
2022/06/28 10:07:34;;;;;;;2.42;1.80;;;;;;;;;;5016176;28;20052;-74
2022/06/28 10:10:24;;;;;;;6.22;2.80;;;;;;;;;;5012082;28;20209;-74
2022/06/28 10:16:24;;;;;;;4.95;2.60;;;;;;;;;;5030398;28;20451;-73
2022/06/28 10:19:11;;;;;;;3.63;2.10;;;;;;;;;;5040328;28;20519;-75
2022/06/28 10:21:56;;;;;;;3.15;2.00;;;;;;;;;;5058980;28;20032;-76
2022/06/28 10:24:52;;;;;;;2.70;2.15;;;;;;;;;;5073122;28;20033;-75
2022/06/28 10:27:43;;;;;;;2.60;2.08;;;;;;;;;;5072685;28;20024;-75
2022/06/28 10:30:29;;;;;;;5.95;2.28;;;;;;;;;;5057627;28;20037;-74
2022/06/28 10:33:15;;;;;;;3.65;2.20;;;;;;;;;;5061608;28;20119;-76
2022/06/28 10:36:10;;;;;;;2.35;1.90;;;;;;;;;;5068979;28;20376;-75
2022/06/28 10:39:06;;;;;;;2.38;2.15;;;;;;;;;;5055418;28;20383;-76
2022/06/28 10:41:52;;;;;;;4.53;2.90;;;;;;;;;;5069813;28;20106;-75
2022/06/28 10:44:37;;;;;;;3.25;2.10;;;;;;;;;;5056380;28;20398;-73
2022/06/28 10:47:23;;;;;;;2.15;1.95;;;;;;;;;;5072371;28;20040;-74
2022/06/28 10:50:11;;;;;;;2.45;1.73;;;;;;;;;;5070606;28;20383;-70
2022/06/28 10:53:00;;;;;;;3.17;1.33;;;;;;;;;;5072036;28;20067;-73
2022/06/28 10:55:46;;;;;;;;;;;;;;;;;;5072429;28;20036;-70
2022/06/28 10:58:31;;;;;;;1.50;1.40;;;;;;;;;;5059026;28;19908;-72
2022/06/28 11:01:17;;;;;;;2.63;1.58;;;;;;;;;;5068433;28;20483;-69
2022/06/28 11:04:10;;;;;;;1.98;1.77;;;;;;;;;;5071532;28;20029;-67
2022/06/28 11:07:00;;;;;;;3.33;2.00;;;;;;;;;;5060543;28;20104;-71
2022/06/28 11:09:49;;;;;;;5.10;2.22;;;;;;;;;;5071626;28;20450;-63
2022/06/28 11:12:37;;;;;;;2.80;1.90;;;;;;;;;;5073032;28;20099;-64
2022/06/28 11:15:25;;;;;;;2.70;1.75;;;;;;;;;;5073235;28;20383;-65
2022/06/28 11:18:14;;;;;;;3.70;2.15;;;;;;;;;;5072244;28;20098;-64
2022/06/28 11:21:00;;;;;;;;;;;;;;;;;;5064125;28;20020;-65
2022/06/28 11:23:45;;;;;;;5.60;1.88;;;;;;;;;;5072980;28;19965;-64
2022/06/28 11:29:37;;;;;;;2.20;1.70;;;;;;;;;;5067537;28;20025;-69
2022/06/28 11:32:33;;;;;;;4.18;1.83;;;;;;;;;;5071782;28;20063;-69
2022/06/28 11:35:18;;;;;;;2.38;1.90;;;;;;;;;;5072533;28;20435;-67
2022/06/28 11:38:09;;;;;;;2.50;1.85;;;;;;;;;;5071800;28;20037;-69
2022/06/28 11:40:57;;;;;;;4.15;1.60;;;;;;;;;;5072203;28;20029;-69
2022/06/28 11:43:43;;;;;;;6.45;2.30;;;;;;;;;;5072059;28;20497;-66
2022/06/28 11:46:28;;;;;;;2.95;1.63;;;;;;;;;;5058210;28;20017;-73
2022/06/28 11:49:24;;;;;;;2.22;1.70;;;;;;;;;;5071330;28;20422;-72
2022/06/28 11:52:14;;;;;;;2.92;1.55;;;;;;;;;;5071980;28;20074;-72
2022/06/28 11:55:00;;;;;;;4.00;1.30;;;;;;;;;;5072374;28;20025;-72
2022/06/28 11:57:46;;;;;;;2.05;1.48;;;;;;;;;;5071199;28;20036;-72
2022/06/28 12:00:31;;;;;;;2.47;1.70;;;;;;;;;;5072290;28;20040;-72
2022/06/28 12:03:17;;;;;;;2.17;1.45;;;;;;;;;;5070524;28;20028;-69
2022/06/28 12:06:03;;;;;;;2.92;1.67;;;;;;;;;;5071599;28;20028;-69
2022/06/28 12:08:51;;;;;;;2.38;1.58;;;;;;;;;;5071032;28;20024;-68
2022/06/28 12:11:50;;;;;;;4.00;1.55;;;;;;;;;;5072455;28;20048;-70
2022/06/28 12:14:36;;;;;;;3.97;1.58;;;;;;;;;;5072411;28;20077;-68
2022/06/28 12:17:21;;;;;;;1.35;1.25;;;;;;;;;;5070872;28;20471;-73
2022/06/28 12:20:07;;;;;;;3.65;1.48;;;;;;;;;;5058434;28;20071;-64
2022/06/28 12:23:00;;;;;;;2.65;1.40;;;;;;;;;;5059949;28;20036;-66
2022/06/28 12:25:46;;;;;;;3.70;1.50;;;;;;;;;;5071433;28;20394;-66
2022/06/28 12:28:31;;;;;;;2.92;1.60;;;;;;;;;;5070745;28;20037;-66
2022/06/28 12:31:17;;;;;;;4.10;1.50;;;;;;;;;;5072158;28;20514;-67
2022/06/28 12:34:06;;;;;;;2.92;1.70;;;;;;;;;;5071154;28;20035;-66
2022/06/28 12:36:51;;;;;;;;;;;;;;;;;;5071127;28;20455;-84
2022/06/28 12:39:37;;;;;;;3.83;1.40;;;;;;;;;;5058388;28;19912;-68
2022/06/28 12:42:26;;;;;;;21.65;2.72;;;;;;;;;;5057114;28;20029;-77
2022/06/28 12:45:12;;;;;;;5.07;1.13;;;;;;;;;;5071341;28;20036;-79
2022/06/28 12:47:57;;;;;;;2.55;1.20;;;;;;;;;;5056447;28;20484;-76
2022/06/28 12:50:43;;;;;;;2.10;1.30;;;;;;;;;;5070900;28;20078;-75
2022/06/28 12:53:28;;;;;;;3.22;1.17;;;;;;;;;;5071161;28;20514;-70
2022/06/28 12:56:16;;;;;;;1.40;1.30;;;;;;;;;;5041155;28;20063;-65
2022/06/28 12:59:01;;;;;;;2.90;1.25;;;;;;;;;;5072324;28;20468;-65
2022/06/28 13:01:47;;;;;;;1.83;1.52;;;;;;;;;;5069605;28;20116;-66
2022/06/28 13:04:33;;;;;;;2.08;1.58;;;;;;;;;;5054436;28;20032;-67
2022/06/28 13:07:19;;;;;;;2.70;1.42;;;;;;;;;;5070105;28;20028;-67
2022/06/28 13:10:04;;;;;;;2.05;1.40;;;;;;;;;;5071178;28;20036;-66
2022/06/28 13:12:50;;;;;;;2.55;1.55;;;;;;;;;;5071310;28;20033;-76
2022/06/28 13:15:36;;;;;;;3.03;1.27;;;;;;;;;;5068867;28;20490;-80
2022/06/28 13:18:22;;;;;;;2.92;1.42;;;;;;;;;;5069903;28;20075;-63
2022/06/28 13:21:08;;;;;;;2.08;1.27;;;;;;;;;;5055747;28;20387;-64
2022/06/28 13:23:54;;;;;;;3.42;1.73;;;;;;;;;;5070204;28;20089;-63
2022/06/28 13:26:41;;;;;;;3.33;1.40;;;;;;;;;;5069764;28;20383;-63
2022/06/28 13:29:27;;;;;;;5.65;1.90;;;;;;;;;;5058279;28;20138;-66
2022/06/28 13:32:12;;;;;;;2.03;1.10;;;;;;;;;;5069834;28;20031;-66
2022/06/28 13:34:58;;;;;;;4.95;1.60;;;;;;;;;;5071059;28;20060;-69
2022/06/28 13:37:44;;;;;;;3.67;1.35;;;;;;;;;;5070758;28;20476;-67
2022/06/28 13:40:29;;;;;;;1.58;0.88;;;;;;;;;;5072111;28;20028;-67
2022/06/28 13:43:33;;;;;;;3.55;1.15;;;;;;;;;;5063069;28;20035;-75
2022/06/28 13:46:18;;;;;;;6.85;1.25;;;;;;;;;;5073008;28;20418;-74
2022/06/28 13:49:04;;;;;;;2.13;1.30;;;;;;;;;;5073811;28;20027;-74
2022/06/28 13:51:50;;;;;;;2.25;1.20;;;;;;;;;;5073220;28;20069;-73
2022/06/28 13:54:35;;;;;;;2.35;1.40;;;;;;;;;;5057480;28;20039;-75
2022/06/28 13:57:25;;;;;;;2.13;1.10;;;;;;;;;;5059066;28;20454;-75
2022/06/28 14:00:11;;;;;;;2.65;1.20;;;;;;;;;;5073505;28;20407;-76
2022/06/28 14:02:57;;;;;;;4.88;1.52;;;;;;;;;;5061402;28;20048;-75
2022/06/28 14:05:46;;;;;;;1.80;1.25;;;;;;;;;;5073454;28;20207;-74
2022/06/28 14:08:32;;;;;;;3.72;1.10;;;;;;;;;;5074583;28;20421;-73
2022/06/28 14:11:17;;;;;;;4.97;1.02;;;;;;;;;;5073500;28;20055;-74
2022/06/28 14:14:03;;;;;;;3.90;1.55;;;;;;;;;;5061091;28;20028;-75
2022/06/28 14:16:49;;;;;;;2.45;1.42;;;;;;;;;;5072875;28;20031;-75
2022/06/28 14:19:35;;;;;;;2.15;1.30;;;;;;;;;;5071986;28;20103;-73
2022/06/28 14:22:22;;;;;;;2.45;1.20;;;;;;;;;;5073447;28;20025;-75
2022/06/28 14:25:08;;;;;;;2.38;1.70;;;;;;;;;;5059319;28;20395;-75
2022/06/28 14:27:54;;;;;;;1.35;1.02;;;;;;;;;;5073855;28;20519;-74
2022/06/28 14:30:40;;;;;;;1.92;1.20;;;;;;;;;;5057042;28;20393;-75
2022/06/28 14:33:25;;;;;;;5.68;1.50;;;;;;;;;;5072675;28;20471;-77
2022/06/28 14:36:11;;;;;;;2.80;1.52;;;;;;;;;;5072455;28;20024;-77
2022/06/28 14:38:57;;;;;;;2.08;1.67;;;;;;;;;;5073212;28;20115;-79
2022/06/28 14:41:42;;;;;;;4.28;1.40;;;;;;;;;;5058874;28;20017;-77
2022/06/28 14:44:28;;;;;;;2.38;1.40;;;;;;;;;;5069621;28;20029;-77
2022/06/28 14:47:13;;;;;;;2.90;1.20;;;;;;;;;;5072945;28;20406;-75
2022/06/28 14:49:59;;;;;;;4.32;1.73;;;;;;;;;;5072969;28;20379;-73
2022/06/28 14:52:45;;;;;;;1.55;1.30;;;;;;;;;;5057494;28;20015;-72
2022/06/28 14:55:30;;;;;;;1.15;1.05;;;;;;;;;;5058326;28;20033;-73
2022/06/28 14:58:16;;;;;;;2.08;1.40;;;;;;;;;;5072131;28;20037;-74
2022/06/28 15:01:02;;;;;;;2.67;1.23;;;;;;;;;;5058282;28;20028;-74
2022/06/28 15:03:48;;;;;;;2.08;1.20;;;;;;;;;;5071285;28;20028;-73
2022/06/28 15:06:33;;;;;;;1.98;1.30;;;;;;;;;;5072717;28;20116;-76
2022/06/28 15:09:19;;;;;;;3.83;1.35;;;;;;;;;;5073204;28;20058;-77
2022/06/28 15:12:05;;;;;;;2.63;1.35;;;;;;;;;;5068038;28;20035;-77
2022/06/28 15:14:52;;;;;;;1.98;1.30;;;;;;;;;;5046103;28;20024;-76
2022/06/28 15:17:38;;;;;;;3.83;1.55;;;;;;;;;;5056661;28;20443;-76
2022/06/28 15:20:23;;;;;;;2.58;1.40;;;;;;;;;;5059342;28;20457;-77
2022/06/28 15:32:42;;;;;;;1.70;1.20;;;;;;;;;;5070094;28;20020;-74
2022/06/28 15:35:27;;;;;;;1.65;1.40;;;;;;;;;;5063411;28;20533;-75
2022/06/28 15:38:14;;;;;;;1.85;1.25;;;;;;;;;;5056491;28;20449;-75
2022/06/28 15:41:01;;;;;;;1.67;1.17;;;;;;;;;;5071261;28;20044;-75
2022/06/28 15:43:46;;;;;;;3.17;1.30;;;;;;;;;;5071848;28;20052;-75
2022/06/28 15:46:32;;;;;;;3.97;1.45;;;;;;;;;;5068807;28;20028;-75
2022/06/28 15:49:17;;;;;;;2.50;1.38;;;;;;;;;;5056559;28;20472;-74
2022/06/28 15:52:03;;;;;;;2.05;1.50;;;;;;;;;;5063667;28;20510;-75
2022/06/28 15:54:49;;;;;;;2.25;1.70;;;;;;;;;;5071595;28;20031;-75
2022/06/28 15:57:35;;;;;;;2.60;1.50;;;;;;;;;;5069112;28;20475;-74
2022/06/28 16:00:21;;;;;;;2.90;1.50;;;;;;;;;;5071673;28;20450;-75
2022/06/28 16:03:07;;;;;;;3.35;1.38;;;;;;;;;;5055776;28;20108;-75
2022/06/28 16:05:53;;;;;;;2.92;1.77;;;;;;;;;;5055291;28;20395;-75
2022/06/28 16:08:38;;;;;;;1.58;1.30;;;;;;;;;;5069171;28;20029;-75
2022/06/28 16:11:24;;;;;;;2.08;1.58;;;;;;;;;;5068292;28;20111;-74
2022/06/28 16:14:09;;;;;;;2.42;1.50;;;;;;;;;;5057903;28;20033;-74
2022/06/28 16:16:55;;;;;;;4.22;1.40;;;;;;;;;;5068253;28;20694;-79
2022/06/28 16:19:40;;;;;;;3.25;1.70;;;;;;;;;;5070403;28;20052;-85
2022/06/28 16:22:26;;;;;;;3.67;1.83;;;;;;;;;;5067943;28;20165;-71
2022/06/28 16:25:12;;;;;;;3.20;2.10;;;;;;;;;;5067214;28;20060;-73
2022/06/28 16:27:59;;;;;;;4.47;1.90;;;;;;;;;;5068809;28;20036;-72
2022/06/28 16:30:45;;;;;;;4.00;2.10;;;;;;;;;;5068064;28;20088;-71
2022/06/28 16:33:31;;;;;;;3.47;1.70;;;;;;;;;;5065417;28;20368;-72
2022/06/28 16:36:16;;;;;;;3.63;1.67;;;;;;;;;;5067976;28;20028;-73
2022/06/28 16:39:02;;;;;;;4.32;1.85;;;;;;;;;;5067290;28;20032;-79
2022/06/28 16:41:47;;;;;;;3.05;1.88;;;;;;;;;;5071309;28;20367;-79
2022/06/28 16:44:35;;;;;;;3.38;1.98;;;;;;;;;;5068175;28;20040;-79
2022/06/28 16:47:20;;;;;;;5.13;2.00;;;;;;;;;;5057477;28;20105;-81
2022/06/28 16:50:07;;;;;;;4.60;2.08;;;;;;;;;;5071356;28;20033;-82
2022/06/28 16:52:53;;;;;;;2.60;1.60;;;;;;;;;;5068757;28;20028;-80
2022/06/28 16:55:39;;;;;;;2.22;1.55;;;;;;;;;;5069644;28;20024;-72
2022/06/28 16:58:24;;;;;;;4.30;1.77;;;;;;;;;;5066944;28;20028;-74
2022/06/28 17:01:10;;;;;;;2.30;1.65;;;;;;;;;;5068184;28;20459;-74
2022/06/28 17:03:56;;;;;;;4.22;1.83;;;;;;;;;;5069593;28;20029;-74